Time;durP1;ratioP1;P1;durP2;ratioP2;P2;SDS_P1;SDS_P2;PMS_P1;PMS_P2;Temp;Humidity;BMP_temperature;BMP_pressure;BME280_temperature;BME280_humidity;BME280_pressure;Samples;Min_cycle;Max_cycle;Signal;HPM_P1;HPM_P2
2024/04/01 00:02:40;;;;;;;12.90;3.40;;;;;;;17.11;56.54;98097.29;102930;1291;599653;-25
2024/04/01 00:12:44;;;;;;;14.40;4.10;;;;;;;17.83;55.07;98099.98;102600;1293;600911;-26
2024/04/01 00:15:12;;;;;;;9.90;3.30;;;;;;;17.87;54.64;98104.27;104817;1270;61205;-26
2024/04/01 00:17:40;;;;;;;6.50;2.70;;;;;;;17.84;54.83;98103.53;104802;1272;61171;-26
2024/04/01 00:27:45;;;;;;;6.60;2.80;;;;;;;17.29;56.50;98091.63;102547;1292;599533;-26
2024/04/01 00:37:55;;;;;;;9.40;3.80;;;;;;;17.35;55.96;98078.88;102519;1292;600533;-28
2024/04/01 00:40:22;;;;;;;17.30;4.30;;;;;;;17.52;54.37;98073.77;105060;1265;61131;-28
2024/04/01 00:42:51;;;;;;;14.50;3.80;;;;;;;17.62;53.80;98073.77;104824;1266;61088;-28
2024/04/01 00:45:18;;;;;;;11.60;3.70;;;;;;;17.63;53.38;98075.11;104859;1270;71804;-28
2024/04/01 00:55:24;;;;;;;12.30;3.70;;;;;;;17.62;55.07;98077.27;102615;1296;600279;-26
2024/04/01 01:05:37;;;;;;;9.30;2.70;;;;;;;17.44;55.12;98037.73;102603;1294;600267;-26
2024/04/01 01:08:05;;;;;;;13.30;3.70;;;;;;;17.19;56.17;98043.77;104803;1272;61167;-25
2024/04/01 01:10:33;;;;;;;14.50;3.70;;;;;;;17.16;56.27;98022.95;104883;1267;61046;-25
2024/04/01 01:13:01;;;;;;;11.60;3.30;;;;;;;17.12;56.35;98016.48;104807;1272;71791;-26
2024/04/01 01:15:28;;;;;;;12.40;3.20;;;;;;;17.12;56.12;98009.73;104850;1267;73045;-25
2024/04/01 01:17:56;;;;;;;12.60;3.50;;;;;;;17.02;56.40;98017.20;104823;1268;75343;-26
2024/04/01 01:20:24;;;;;;;18.50;5.20;;;;;;;17.59;56.09;98021.83;101318;1271;4812324;-26
2024/04/01 01:22:51;;;;;;;13.20;4.10;;;;;;;18.17;54.17;98025.02;105117;1263;61125;-26
2024/04/01 01:25:19;;;;;;;15.10;3.50;;;;;;;18.14;53.35;98039.77;105202;1270;73476;-26
2024/04/01 01:27:46;;;;;;;10.40;3.30;;;;;;;18.29;53.17;98047.91;105124;1264;74764;-26
2024/04/01 01:30:17;;;;;;;9.20;3.20;;;;;;;18.19;52.99;98049.21;105156;1269;71553;-27
2024/04/01 01:32:51;;;;;;;8.80;2.80;;;;;;;18.02;53.21;98056.35;105131;1264;61112;-28
2024/04/01 01:43:02;;;;;;;8.10;3.40;;;;;;;16.86;56.92;98074.40;102552;1292;599480;-25
2024/04/01 01:53:13;;;;;;;9.20;2.80;;;;;;;16.60;57.86;98067.91;102605;1293;600126;-26
2024/04/01 01:55:40;;;;;;;14.50;2.70;;;;;;;16.60;57.72;98061.04;104815;1273;61047;-26
2024/04/01 01:58:08;;;;;;;12.50;3.90;;;;;;;16.52;57.83;98051.67;104823;1265;61167;-26
2024/04/01 02:00:35;;;;;;;17.30;3.50;;;;;;;16.37;58.28;98054.48;104767;1270;71851;-26
2024/04/01 02:03:06;;;;;;;12.80;3.20;;;;;;;16.99;57.12;98060.60;104792;1271;73177;-26
2024/04/01 02:13:17;;;;;;;18.70;3.50;;;;;;;16.85;56.59;98047.84;102607;1294;600361;-26
2024/04/01 02:15:45;;;;;;;10.60;2.70;;;;;;;16.62;57.04;98047.15;104808;1267;61808;-26
2024/04/01 02:18:12;;;;;;;16.60;3.40;;;;;;;16.38;57.60;98050.92;104848;1265;61025;-26
2024/04/01 02:28:23;;;;;;;12.80;2.40;;;;;;;16.00;58.66;98037.29;102563;1292;600162;-26
2024/04/01 02:30:50;;;;;;;10.80;2.40;;;;;;;15.86;58.63;98037.18;104798;1271;61861;-26
2024/04/01 02:33:18;;;;;;;10.60;2.70;;;;;;;15.64;59.59;98038.32;104802;1271;61113;-28
2024/04/01 02:35:46;;;;;;;11.20;2.70;;;;;;;16.10;59.00;98041.83;104846;1266;75284;-28
2024/04/01 02:38:14;;;;;;;6.00;1.90;;;;;;;16.48;57.75;98040.80;104795;1266;73067;-25
2024/04/01 02:40:41;;;;;;;9.20;3.10;;;;;;;16.53;57.23;98048.29;104825;1266;72695;-25
2024/04/01 02:43:09;;;;;;;15.50;3.30;;;;;;;16.39;57.57;98045.20;101729;1263;4611900;-25
2024/04/01 02:45:36;;;;;;;8.60;3.20;;;;;;;16.19;58.01;98043.80;104990;1268;61161;-26
2024/04/01 02:48:05;;;;;;;9.10;3.00;;;;;;;16.05;58.27;98047.00;105026;1263;71837;-25
2024/04/01 02:58:18;;;;;;;9.30;2.20;;;;;;;15.51;60.78;98047.11;102553;1292;599474;-26
2024/04/01 03:00:45;;;;;;;9.10;3.00;;;;;;;16.08;59.80;98045.98;104817;1267;61139;-25
2024/04/01 03:03:13;;;;;;;9.40;2.90;;;;;;;16.34;58.73;98047.09;104660;1267;61055;-25
2024/04/01 03:05:41;;;;;;;14.20;3.40;;;;;;;16.29;58.95;98050.48;104658;1267;73042;-26
2024/04/01 03:08:08;;;;;;;4.30;1.90;;;;;;;16.19;59.12;98051.14;104653;1267;74320;-25
2024/04/01 03:10:36;;;;;;;11.40;3.00;;;;;;;16.02;59.58;98050.67;104716;1269;72653;-26
2024/04/01 03:19:48;;;;;;;8.90;2.60;;;;;;;15.68;60.76;98047.17;102543;1292;600219;-26
2024/04/01 03:29:59;;;;;;;9.10;3.20;;;;;;;16.29;58.66;98040.30;102584;1294;600166;-26
2024/04/01 03:32:27;;;;;;;10.80;3.00;;;;;;;16.06;58.96;98044.30;104844;1266;61046;-25
2024/04/01 03:34:55;;;;;;;13.80;3.00;;;;;;;15.95;59.20;98048.24;104788;1266;61063;-25
2024/04/01 03:37:22;;;;;;;7.20;1.70;;;;;;;15.77;59.41;98054.34;104758;1266;73070;-25
2024/04/01 03:47:28;;;;;;;10.00;2.70;;;;;;;16.31;58.67;98035.17;102526;1294;600253;-25
2024/04/01 03:57:39;;;;;;;10.00;3.20;;;;;;;15.81;59.40;98037.11;103232;1282;599448;-26
2024/04/01 04:00:07;;;;;;;10.30;3.30;;;;;;;15.64;60.01;98043.28;104796;1267;61126;-26
2024/04/01 04:02:35;;;;;;;8.40;3.10;;;;;;;15.54;60.49;98051.09;104785;1268;61117;-25
2024/04/01 04:05:03;;;;;;;9.60;2.60;;;;;;;15.41;60.72;98058.86;104722;1271;73164;-27
2024/04/01 04:15:13;;;;;;;8.30;2.40;;;;;;;16.10;58.90;98069.67;102892;1289;601242;-26
2024/04/01 04:17:42;;;;;;;19.40;2.80;;;;;;;15.97;58.82;98076.14;104875;1265;61888;-26
2024/04/01 04:20:10;;;;;;;8.10;2.50;;;;;;;15.74;59.57;98076.56;104888;1266;61162;-25
2024/04/01 04:22:38;;;;;;;10.50;2.70;;;;;;;15.71;60.12;98073.61;105701;1259;73019;-26
2024/04/01 04:25:06;;;;;;;5.80;2.80;;;;;;;15.76;59.88;98076.98;105698;1261;74323;-25
2024/04/01 04:27:34;;;;;;;7.80;3.10;;;;;;;15.61;60.46;98078.45;105644;1257;72685;-26
2024/04/01 04:30:02;;;;;;;5.30;2.20;;;;;;;15.71;60.10;98077.27;102449;1256;61176;-25
2024/04/01 04:32:29;;;;;;;8.20;3.00;;;;;;;16.11;58.81;98072.71;105776;1253;71694;-26
2024/04/01 04:34:57;;;;;;;13.20;3.50;;;;;;;16.17;58.46;98070.27;105750;1259;74425;-25
2024/04/01 04:37:26;;;;;;;10.90;3.30;;;;;;;16.12;58.49;98070.37;105892;1256;71004;-26
2024/04/01 04:47:32;;;;;;;8.10;2.70;;;;;;;15.74;59.70;98070.77;102550;1292;600707;-29
2024/04/01 04:50:00;;;;;;;11.90;2.90;;;;;;;15.68;60.00;98074.86;104823;1267;61171;-30
2024/04/01 04:52:28;;;;;;;8.40;2.20;;;;;;;15.72;60.66;98076.30;104789;1264;61121;-30
2024/04/01 04:54:56;;;;;;;15.10;2.90;;;;;;;16.26;58.64;98074.48;104570;1264;73003;-30
2024/04/01 04:57:24;;;;;;;13.00;2.50;;;;;;;16.56;57.62;98077.30;104841;1266;74328;-28
2024/04/01 04:59:51;;;;;;;20.90;4.60;;;;;;;16.65;57.09;98072.16;104823;1266;72764;-30
2024/04/01 05:02:19;;;;;;;21.40;3.80;;;;;;;16.51;57.44;98072.23;101742;1264;4529727;-30
2024/04/01 05:12:30;;;;;;;13.00;3.60;;;;;;;16.11;58.64;98062.52;102795;1292;599375;-27
2024/04/01 05:14:58;;;;;;;17.60;2.60;;;;;;;16.03;58.69;98066.84;104844;1270;61158;-32
2024/04/01 05:17:25;;;;;;;7.60;2.60;;;;;;;15.96;58.68;98074.34;104918;1264;60978;-31
2024/04/01 05:19:53;;;;;;;7.30;2.50;;;;;;;15.80;59.24;98080.04;104850;1270;73016;-29
2024/04/01 05:22:21;;;;;;;13.20;3.30;;;;;;;16.25;58.13;98083.15;104882;1264;73097;-28
2024/04/01 05:24:49;;;;;;;12.00;3.10;;;;;;;16.67;56.88;98082.23;104890;1264;71374;-29
2024/04/01 05:27:17;;;;;;;11.10;2.70;;;;;;;16.71;56.57;98082.98;101505;1267;4669026;-31
2024/04/01 05:29:44;;;;;;;9.20;2.90;;;;;;;16.65;56.47;98080.89;104916;1270;61112;-28
2024/04/01 05:32:12;;;;;;;10.00;3.20;;;;;;;16.65;56.53;98079.20;104876;1269;73032;-27
2024/04/01 05:42:21;;;;;;;13.20;3.20;;;;;;;16.70;56.74;98081.92;102608;1293;600036;-28
2024/04/01 05:52:31;;;;;;;9.70;3.10;;;;;;;16.79;55.69;98085.55;102607;1293;600026;-26
2024/04/01 05:55:00;;;;;;;10.70;3.30;;;;;;;16.76;55.76;98089.61;104809;1267;61196;-26
2024/04/01 05:57:28;;;;;;;8.30;3.20;;;;;;;16.70;55.85;98093.33;104906;1267;61110;-26
2024/04/01 06:06:44;;;;;;;8.40;3.00;;;;;;;17.29;54.98;98101.22;102527;1292;600940;-25
2024/04/01 06:09:16;;;;;;;12.80;3.40;;;;;;;17.41;54.52;98109.88;104797;1272;62854;-25
2024/04/01 06:11:44;;;;;;;11.90;3.70;;;;;;;17.50;53.79;98110.83;104754;1273;62748;-27
2024/04/01 06:14:12;;;;;;;23.20;3.70;;;;;;;17.62;53.85;98114.43;104902;1266;75557;-27
2024/04/01 06:16:40;;;;;;;15.80;3.80;;;;;;;17.75;53.12;98113.89;104756;1266;74859;-28
2024/04/01 06:19:12;;;;;;;13.90;3.60;;;;;;;17.75;53.09;98113.52;104372;1272;4714806;-28
2024/04/01 06:21:39;;;;;;;19.60;4.40;;;;;;;17.88;53.13;98107.84;104997;1263;61164;-27
2024/04/01 06:24:07;;;;;;;18.50;3.70;;;;;;;17.83;52.80;98117.45;104822;1263;61096;-27
2024/04/01 06:26:36;;;;;;;24.40;4.10;;;;;;;17.95;52.14;98116.80;105533;1261;61103;-27
2024/04/01 06:29:04;;;;;;;12.30;3.80;;;;;;;18.13;51.81;98111.26;105521;1256;74361;-27
2024/04/01 06:31:32;;;;;;;16.20;3.80;;;;;;;18.19;51.63;98112.12;105530;1256;74315;-27
2024/04/01 06:34:00;;;;;;;19.60;3.50;;;;;;;18.36;51.18;98112.27;105566;1258;75146;-27
2024/04/01 06:36:28;;;;;;;10.50;2.60;;;;;;;18.54;50.81;98113.16;105596;1257;61929;-25
2024/04/01 06:38:55;;;;;;;10.10;2.10;;;;;;;18.68;49.96;98117.04;105273;1257;61838;-26
2024/04/01 06:41:23;;;;;;;16.90;4.30;;;;;;;18.76;50.04;98120.05;105518;1256;73800;-26
2024/04/01 06:43:51;;;;;;;12.70;3.60;;;;;;;18.82;49.02;98119.77;105355;1256;75574;-27
2024/04/01 06:46:19;;;;;;;22.30;4.20;;;;;;;18.99;48.07;98120.73;105554;1261;72670;-25
2024/04/01 06:48:47;;;;;;;13.00;3.20;;;;;;;19.14;48.09;98120.95;105528;1262;63119;-28
2024/04/01 06:51:14;;;;;;;14.00;4.00;;;;;;;19.34;47.67;98119.36;105555;1261;61922;-26
2024/04/01 06:53:42;;;;;;;12.20;2.70;;;;;;;19.52;47.03;98123.68;105580;1257;76968;-26
2024/04/01 06:56:09;;;;;;;27.90;5.20;;;;;;;19.73;46.59;98113.85;105392;1263;74348;-27
2024/04/01 06:58:38;;;;;;;21.10;3.70;;;;;;;19.84;46.10;98119.02;105449;1259;75586;-27
2024/04/01 07:01:06;;;;;;;19.00;3.20;;;;;;;20.02;45.77;98120.68;105420;1265;61144;-27
2024/04/01 07:03:34;;;;;;;15.30;3.00;;;;;;;20.14;45.32;98117.14;105433;1263;62534;-27
2024/04/01 07:06:01;;;;;;;30.30;6.40;;;;;;;20.15;44.77;98119.81;105290;1263;73888;-27
2024/04/01 07:08:30;;;;;;;27.30;5.20;;;;;;;20.39;44.54;98115.92;105428;1263;76466;-27
2024/04/01 07:10:57;;;;;;;23.10;3.60;;;;;;;20.64;44.20;98116.18;105317;1265;74496;-27
2024/04/01 07:13:25;;;;;;;18.40;3.70;;;;;;;20.82;43.91;98116.94;105284;1260;61671;-27
2024/04/01 07:15:53;;;;;;;15.90;4.10;;;;;;;20.94;43.35;98121.59;105453;1262;61460;-27
2024/04/01 07:18:21;;;;;;;13.50;4.00;;;;;;;21.16;43.37;98124.55;105337;1260;74858;-27
2024/04/01 07:20:49;;;;;;;19.60;4.00;;;;;;;21.25;42.47;98132.17;105631;1264;75609;-27
2024/04/01 07:23:16;;;;;;;24.70;5.60;;;;;;;21.42;42.40;98127.23;105617;1260;73948;-27
2024/04/01 07:25:45;;;;;;;21.00;3.90;;;;;;;21.65;42.25;98129.20;105663;1258;61198;-27
2024/04/01 07:28:13;;;;;;;30.10;6.30;;;;;;;21.89;41.63;98126.11;105700;1253;63208;-27
2024/04/01 07:30:41;;;;;;;22.10;4.50;;;;;;;22.23;40.22;98121.63;105562;1259;75933;-27
2024/04/01 07:33:08;;;;;;;21.40;5.90;;;;;;;22.34;37.96;98124.21;105486;1253;77203;-26
2024/04/01 07:35:36;;;;;;;42.10;7.10;;;;;;;22.32;37.45;98125.46;105736;1253;75371;-26
2024/04/01 07:38:04;;;;;;;25.00;4.80;;;;;;;22.46;37.49;98126.29;105628;1254;61093;-27
2024/04/01 07:40:34;;;;;;;14.20;3.70;;;;;;;22.61;36.96;98127.54;105612;1258;62522;-26
2024/04/01 07:43:04;;;;;;;34.60;8.20;;;;;;;22.79;36.95;98130.23;105683;1259;76621;-26
2024/04/01 07:45:31;;;;;;;23.70;4.00;;;;;;;23.12;36.70;98127.92;105744;1254;75143;-26
2024/04/01 07:47:59;;;;;;;39.60;7.30;;;;;;;23.33;35.90;98129.88;109178;1253;74250;-27
2024/04/01 07:50:26;;;;;;;36.70;8.00;;;;;;;23.45;35.54;98125.92;109270;1253;61863;-27
2024/04/01 07:52:54;;;;;;;32.10;7.60;;;;;;;23.30;35.04;98123.73;109308;1253;59276;-27
2024/04/01 07:55:21;;;;;;;36.70;7.90;;;;;;;23.15;34.68;98116.12;109309;1254;76412;-27
2024/04/01 07:57:49;;;;;;;51.70;7.60;;;;;;;23.35;34.83;98120.23;109335;1253;76279;-27
2024/04/01 08:00:17;;;;;;;40.60;8.60;;;;;;;23.52;34.59;98118.17;109285;1254;73663;-28
2024/04/01 08:02:44;;;;;;;39.70;7.70;;;;;;;23.81;33.92;98115.64;109220;1254;60908;-28
2024/04/01 08:05:12;;;;;;;46.80;5.60;;;;;;;23.96;33.20;98112.13;109391;1255;61017;-28
2024/04/01 08:07:40;;;;;;;30.90;7.40;;;;;;;24.03;33.40;98115.52;109261;1254;77448;-27
2024/04/01 08:10:07;;;;;;;20.40;5.30;;;;;;;24.15;33.19;98119.59;109329;1254;76792;-27
2024/04/01 08:12:35;;;;;;;40.80;7.30;;;;;;;24.21;33.25;98117.42;109406;1254;74597;-28
2024/04/01 08:15:02;;;;;;;35.10;7.30;;;;;;;24.28;32.62;98110.84;109215;1254;62120;-27
2024/04/01 08:17:31;;;;;;;42.30;7.50;;;;;;;24.46;32.46;98114.98;109224;1254;61216;-28
2024/04/01 08:19:58;;;;;;;34.90;7.00;;;;;;;24.43;32.76;98110.10;109319;1254;74911;-27
2024/04/01 08:22:26;;;;;;;43.90;8.60;;;;;;;24.53;31.90;98114.58;109221;1254;75528;-27
2024/04/01 08:24:53;;;;;;;43.70;7.70;;;;;;;24.57;31.90;98108.58;109235;1254;73877;-27
2024/04/01 08:27:21;;;;;;;47.80;8.70;;;;;;;25.14;31.18;98107.55;109164;1260;61439;-28
2024/04/01 08:29:48;;;;;;;33.60;8.00;;;;;;;25.45;30.85;98112.39;109198;1259;63434;-27
2024/04/01 08:32:16;;;;;;;40.00;8.40;;;;;;;25.53;31.02;98115.38;109216;1254;74602;-27
2024/04/01 08:34:44;;;;;;;45.90;8.80;;;;;;;25.58;30.33;98099.92;109351;1256;76388;-27
2024/04/01 08:37:11;;;;;;;47.70;8.20;;;;;;;24.89;30.56;98110.25;109301;1253;73375;-28
2024/04/01 08:39:38;;;;;;;54.10;8.20;;;;;;;25.06;30.44;98106.32;109282;1256;62307;-27
2024/04/01 08:42:08;;;;;;;45.10;8.90;;;;;;;25.17;30.46;98107.42;109327;1254;62119;-28
2024/04/01 08:44:35;;;;;;;43.40;8.60;;;;;;;25.28;30.34;98106.20;109102;1258;76190;-27
2024/04/01 08:47:03;;;;;;;44.10;8.30;;;;;;;25.49;30.02;98100.83;109265;1254;75675;-27
2024/04/01 08:49:50;;;;;;;37.20;7.50;;;;;;;25.32;30.30;98102.27;109214;1255;74694;-27
2024/04/01 08:52:22;;;;;;;48.90;9.00;;;;;;;24.85;30.40;98104.71;109322;1254;59555;-28
2024/04/01 08:54:50;;;;;;;47.60;9.10;;;;;;;24.91;29.97;98098.48;109097;1254;62479;-27
2024/04/01 08:57:18;;;;;;;54.10;9.50;;;;;;;24.84;30.11;98097.45;109322;1259;76361;-27
2024/04/01 08:59:45;;;;;;;57.20;9.30;;;;;;;25.10;30.30;98096.80;109241;1254;74019;-27
2024/04/01 09:02:13;;;;;;;51.30;9.70;;;;;;;25.32;29.84;98082.88;109211;1254;74163;-27
2024/04/01 09:04:41;;;;;;;39.80;8.30;;;;;;;25.07;29.42;98070.10;109199;1257;62077;-27
2024/04/01 09:07:13;;;;;;;45.60;8.30;;;;;;;25.15;29.15;98074.05;109112;1254;62025;-27
2024/04/01 09:09:40;;;;;;;53.60;9.60;;;;;;;25.33;29.06;98068.78;109335;1254;75902;-27
2024/04/01 09:12:08;;;;;;;47.40;8.80;;;;;;;25.42;28.83;98068.00;109333;1254;76530;-27
2024/04/01 09:14:35;;;;;;;42.10;8.10;;;;;;;25.25;29.26;98063.86;109053;1254;74636;-27
2024/04/01 09:17:03;;;;;;;44.30;9.40;;;;;;;25.30;28.85;98056.85;109152;1254;61109;-27
2024/04/01 09:19:31;;;;;;;55.10;9.70;;;;;;;25.56;27.98;98057.15;109329;1254;61129;-28
2024/04/01 09:22:01;;;;;;;48.60;9.40;;;;;;;25.80;27.55;98056.64;109119;1254;74653;-27
2024/04/01 09:24:32;;;;;;;41.30;8.40;;;;;;;26.10;27.86;98058.74;109281;1254;75534;-27
2024/04/01 09:27:01;;;;;;;51.20;9.00;;;;;;;26.07;27.79;98060.30;109193;1259;75161;-27
2024/04/01 09:29:31;;;;;;;44.20;9.50;;;;;;;25.79;27.74;98060.90;109221;1254;61681;-27
2024/04/01 09:32:00;;;;;;;52.50;9.70;;;;;;;26.06;27.43;98064.84;109325;1254;61287;-28
2024/04/01 09:34:29;;;;;;;55.70;9.60;;;;;;;25.86;27.08;98056.67;109118;1254;75611;-27
2024/04/01 09:36:57;;;;;;;50.10;9.40;;;;;;;26.08;26.70;98051.52;108999;1254;74296;-27
2024/04/01 09:39:25;;;;;;;55.20;10.20;;;;;;;26.16;26.04;98046.92;109117;1254;74755;-27
2024/04/01 09:41:54;;;;;;;49.80;9.20;;;;;;;26.39;26.01;98042.55;109090;1254;60885;-27
2024/04/01 09:44:24;;;;;;;50.40;9.70;;;;;;;26.48;25.88;98055.05;109223;1254;61375;-28
2024/04/01 09:46:55;;;;;;;65.70;10.80;;;;;;;26.80;25.67;98051.21;109310;1254;76126;-27
2024/04/01 09:49:22;;;;;;;52.80;9.20;;;;;;;26.88;25.52;98047.33;109326;1254;76610;-27
2024/04/01 09:51:50;;;;;;;51.10;9.00;;;;;;;26.94;24.90;98048.77;109071;1254;74121;-27
2024/04/01 09:54:17;;;;;;;55.60;10.20;;;;;;;27.12;24.92;98053.00;109287;1254;63424;-27
2024/04/01 09:57:06;;;;;;;57.60;10.90;;;;;;;27.37;24.63;98059.33;109197;1254;60690;-27
2024/04/01 10:00:06;;;;;;;46.80;8.80;;;;;;;27.35;24.87;98057.83;109223;1254;72727;-27
2024/04/01 10:02:55;;;;;;;55.70;10.20;;;;;;;27.08;24.10;98048.80;109136;1257;75403;-27
2024/04/01 10:05:40;;;;;;;59.20;10.50;;;;;;;27.08;24.12;98051.42;109170;1256;75107;-27
2024/04/01 10:08:55;;;;;;;53.50;9.20;;;;;;;27.08;24.12;98050.25;109050;1263;62367;-27
2024/04/01 10:11:41;;;;;;;55.30;9.90;;;;;;;26.94;24.15;98050.15;109054;1257;61371;-27
2024/04/01 10:14:23;;;;;;;52.10;10.40;;;;;;;26.95;24.56;98044.77;109166;1258;75820;-28
2024/04/01 10:17:15;;;;;;;62.30;10.20;;;;;;;26.92;24.60;98042.19;109056;1256;75890;-27
2024/04/01 10:19:49;;;;;;;81.10;12.00;;;;;;;27.18;24.70;98045.27;109181;1257;75073;-27
2024/04/01 10:22:25;;;;;;;60.60;10.80;;;;;;;27.23;25.05;98047.14;109072;1260;60216;-28
2024/04/01 10:25:30;;;;;;;55.50;9.80;;;;;;;27.06;24.22;98037.25;109176;1256;62089;-27
2024/04/01 10:28:10;;;;;;;62.10;10.20;;;;;;;27.21;24.44;98037.82;109065;1258;75118;-27
2024/04/01 10:30:53;;;;;;;51.00;9.70;;;;;;;27.30;24.79;98039.58;109177;1257;75597;-27
2024/04/01 10:33:32;;;;;;;54.80;9.50;;;;;;;27.13;24.28;98020.98;109152;1256;74798;-27
2024/04/01 10:36:10;;;;;;;59.50;10.90;;;;;;;27.09;23.85;98017.56;109054;1256;59632;-27
2024/04/01 10:39:05;;;;;;;48.80;10.00;;;;;;;27.03;23.62;98015.34;109057;1256;60496;-27
2024/04/01 10:41:57;;;;;;;45.90;9.50;;;;;;;26.88;23.73;98014.44;109182;1257;78116;-28
2024/04/01 10:44:31;;;;;;;60.20;10.80;;;;;;;26.98;23.78;98026.08;109314;1256;76747;-27
2024/04/01 10:47:14;;;;;;;60.20;10.20;;;;;;;27.12;23.56;98025.70;109297;1256;73701;-28
2024/04/01 10:50:06;;;;;;;56.20;10.40;;;;;;;27.25;23.30;98029.35;109275;1257;61295;-28
2024/04/01 10:52:43;;;;;;;59.40;11.60;;;;;;;27.67;23.16;98020.67;109331;1256;60757;-27
2024/04/01 10:55:48;;;;;;;61.50;11.50;;;;;;;27.81;23.10;98027.13;109140;1256;76967;-28
2024/04/01 10:58:34;;;;;;;59.60;11.00;;;;;;;28.34;23.08;98024.41;109183;1256;77944;-27
2024/04/01 11:01:14;;;;;;;57.70;10.90;;;;;;;28.86;22.32;98008.83;109155;1257;76258;-28
2024/04/01 11:04:05;;;;;;;68.70;12.60;;;;;;;28.73;20.43;98011.08;109093;1256;62753;-28
2024/04/01 11:06:47;;;;;;;71.10;13.00;;;;;;;28.95;19.65;98010.31;109064;1257;59526;-28
2024/04/01 11:09:46;;;;;;;67.60;11.80;;;;;;;28.80;20.21;98007.60;109079;1257;78125;-27
2024/04/01 11:12:18;;;;;;;79.10;11.40;;;;;;;29.08;19.98;98002.93;109039;1256;76515;-28
2024/04/01 11:14:45;;;;;;;60.30;11.30;;;;;;;29.28;19.69;97995.15;109065;1257;73792;-28
2024/04/01 11:17:13;;;;;;;55.20;10.30;;;;;;;29.39;20.14;98006.98;109000;1256;62016;-27
2024/04/01 11:20:22;;;;;;;76.00;12.10;;;;;;;29.24;19.51;97999.46;109110;1257;61348;-27
2024/04/01 11:23:00;;;;;;;72.00;13.10;;;;;;;29.57;19.10;97994.25;108981;1257;76183;-28
2024/04/01 11:25:59;;;;;;;55.90;11.60;;;;;;;29.06;19.27;97985.52;109099;1256;77182;-27
2024/04/01 11:28:59;;;;;;;69.50;11.70;;;;;;;29.12;19.86;97986.27;109145;1257;72461;-27
2024/04/01 11:31:30;;;;;;;55.90;12.00;;;;;;;28.73;20.18;97983.39;108961;1256;61549;-27
2024/04/01 11:34:09;;;;;;;63.40;11.10;;;;;;;28.91;20.28;97993.70;109030;1258;62125;-27
2024/04/01 11:36:51;;;;;;;67.30;11.50;;;;;;;29.37;19.91;97975.56;108981;1256;75452;-27
2024/04/01 11:39:18;;;;;;;70.90;12.90;;;;;;;29.62;20.08;97972.40;109007;1256;75579;-27
2024/04/01 11:41:47;;;;;;;66.00;12.50;;;;;;;29.62;20.28;97984.03;109237;1257;76314;-27
2024/04/01 11:44:17;;;;;;;74.00;11.10;;;;;;;29.30;19.82;97984.48;108960;1257;62398;-27
2024/04/01 11:46:45;;;;;;;70.30;11.30;;;;;;;29.23;19.65;97977.22;109043;1256;59804;-27
2024/04/01 11:49:12;;;;;;;61.30;11.90;;;;;;;29.11;19.94;97980.85;109153;1256;75117;-27
2024/04/01 11:51:40;;;;;;;58.40;11.10;;;;;;;29.30;20.52;97975.42;109146;1257;76217;-28
2024/04/01 11:54:07;;;;;;;56.70;10.90;;;;;;;29.56;20.72;97973.88;109159;1256;74610;-28
2024/04/01 11:56:39;;;;;;;59.50;10.90;;;;;;;29.86;20.69;97968.98;108963;1256;61423;-28
2024/04/01 11:59:07;;;;;;;54.70;10.20;;;;;;;29.84;20.84;97975.11;108927;1256;61515;-27
2024/04/01 12:01:35;;;;;;;61.10;11.00;;;;;;;29.82;20.25;97964.50;109056;1257;76733;-28
2024/04/01 12:04:06;;;;;;;76.60;12.80;;;;;;;29.57;19.89;97960.14;108855;1257;75802;-28
2024/04/01 12:06:35;;;;;;;86.20;13.20;;;;;;;29.21;20.34;97968.49;108933;1257;72921;-27
2024/04/01 12:09:08;;;;;;;60.20;10.50;;;;;;;29.32;19.50;97966.46;108946;1257;62042;-27
2024/04/01 12:11:36;;;;;;;57.10;10.90;;;;;;;29.28;19.72;97955.23;109057;1257;62469;-27
2024/04/01 12:14:05;;;;;;;100.90;13.50;;;;;;;28.74;20.36;97971.96;109042;1257;78139;-28
2024/04/01 12:16:33;;;;;;;66.90;11.90;;;;;;;28.35;20.80;97974.42;108986;1257;76397;-28
2024/04/01 12:19:01;;;;;;;64.10;10.60;;;;;;;28.66;21.01;97972.25;109054;1257;76246;-27
2024/04/01 12:21:30;;;;;;;73.70;11.60;;;;;;;28.41;21.04;97972.30;108894;1257;61178;-27
2024/04/01 12:23:59;;;;;;;56.30;10.10;;;;;;;28.09;21.15;97970.92;108952;1257;61957;-27
2024/04/01 12:26:37;;;;;;;64.70;11.70;;;;;;;28.36;21.35;97965.42;108913;1257;77123;-27
2024/04/01 12:29:05;;;;;;;66.80;11.30;;;;;;;28.67;21.25;97955.33;108942;1257;76821;-27
2024/04/01 12:31:35;;;;;;;48.00;9.60;;;;;;;28.50;21.45;97945.76;109045;1256;73615;-27
2024/04/01 12:34:03;;;;;;;64.50;12.10;;;;;;;28.11;21.39;97944.22;109062;1257;63542;-27
2024/04/01 12:36:31;;;;;;;60.70;11.40;;;;;;;27.94;21.89;97944.62;108935;1257;61144;-27
2024/04/01 12:39:03;;;;;;;57.00;11.30;;;;;;;27.95;21.84;97943.12;109070;1257;77136;-27
2024/04/01 12:41:31;;;;;;;47.50;8.80;;;;;;;27.86;21.81;97942.48;109093;1257;77998;-27
2024/04/01 12:43:58;;;;;;;62.60;10.80;;;;;;;27.65;21.77;97933.19;109054;1257;74650;-27
2024/04/01 12:46:26;;;;;;;67.30;11.50;;;;;;;27.69;21.95;97930.31;108936;1257;60851;-27
2024/04/01 12:48:56;;;;;;;62.10;11.10;;;;;;;27.58;22.07;97923.91;109070;1257;63905;-27
2024/04/01 12:51:25;;;;;;;61.40;11.30;;;;;;;28.11;21.89;97920.19;108965;1257;75617;-27
2024/04/01 12:54:16;;;;;;;62.80;11.50;;;;;;;28.18;21.51;97912.61;108949;1257;76955;-27
2024/04/01 12:56:50;;;;;;;67.20;11.30;;;;;;;28.25;21.46;97909.77;108946;1257;76314;-27
2024/04/01 12:59:27;;;;;;;68.00;10.60;;;;;;;27.96;21.58;97910.87;108964;1257;62561;-27
2024/04/01 13:02:20;;;;;;;68.50;11.70;;;;;;;28.03;21.28;97897.98;108955;1259;62357;-27
2024/04/01 13:05:21;;;;;;;78.50;12.70;;;;;;;28.34;21.11;97897.49;108947;1259;78152;-27
2024/04/01 13:08:29;;;;;;;65.90;12.00;;;;;;;28.80;21.01;97891.95;108914;1259;76659;-27
2024/04/01 13:11:13;;;;;;;63.20;11.00;;;;;;;28.95;21.25;97884.52;108949;1258;75107;-27
2024/04/01 13:14:08;;;;;;;59.50;9.80;;;;;;;28.76;21.24;97867.42;108937;1259;62704;-27
2024/04/01 13:17:20;;;;;;;65.50;11.60;;;;;;;28.72;20.96;97860.79;108988;1259;62319;-27
2024/04/01 13:20:06;;;;;;;73.10;11.30;;;;;;;28.53;20.70;97855.60;108575;1264;76300;-27
2024/04/01 13:22:36;;;;;;;89.90;13.80;;;;;;;28.53;20.70;97856.77;108558;1264;75362;-27
2024/04/01 13:25:08;;;;;;;68.80;11.80;;;;;;;28.68;20.08;97852.61;108634;1264;74074;-27
2024/04/01 13:28:10;;;;;;;71.80;12.40;;;;;;;28.64;20.41;97850.10;108501;1265;62196;-27
2024/04/01 13:31:23;;;;;;;75.70;12.30;;;;;;;28.58;20.08;97843.48;108619;1265;61036;-27
2024/04/01 13:33:57;;;;;;;71.70;12.30;;;;;;;28.79;19.77;97845.79;108570;1265;77336;-27
2024/04/01 13:36:43;;;;;;;78.00;12.80;;;;;;;28.83;19.85;97845.83;108563;1265;74586;-27
2024/04/01 13:39:34;;;;;;;69.20;12.80;;;;;;;28.66;19.86;97843.02;108550;1265;75094;-27
2024/04/01 13:42:06;;;;;;;80.00;14.10;;;;;;;28.69;20.41;97843.44;108529;1265;59025;-27
2024/04/01 13:44:37;;;;;;;67.00;12.00;;;;;;;28.86;20.36;97841.09;108554;1264;62566;-27
2024/04/01 13:47:18;;;;;;;74.00;12.30;;;;;;;28.83;20.13;97839.61;108607;1264;75678;-27
2024/04/01 13:50:00;;;;;;;63.00;11.90;;;;;;;28.91;20.19;97836.31;108623;1266;75116;-28
2024/04/01 13:52:53;;;;;;;69.50;12.70;;;;;;;28.91;19.91;97829.39;108789;1259;73502;-27
2024/04/01 13:55:24;;;;;;;60.20;10.40;;;;;;;28.83;20.22;97823.48;108935;1261;60819;-27
2024/04/01 13:58:20;;;;;;;60.20;10.40;;;;;;;28.76;20.03;97817.34;108974;1257;59842;-27
2024/04/01 14:01:37;;;;;;;68.00;11.90;;;;;;;28.81;20.42;97816.42;108929;1257;76748;-27
2024/04/01 14:04:50;;;;;;;71.20;11.90;;;;;;;28.96;20.70;97821.81;108743;1263;76430;-27
2024/04/01 14:07:58;;;;;;;;;;;;;;;28.78;20.52;97818.09;108926;1260;76538;-27
2024/04/01 14:10:51;;;;;;;67.30;13.30;;;;;;;28.82;20.28;97827.55;108709;1263;60238;-27
2024/04/01 14:13:49;;;;;;;60.40;10.20;;;;;;;28.80;20.37;97825.68;108617;1263;59533;-28